Dzhezkazgan, Zhezkazgan Airport (UAKD)

NameZhezkazgan Airport
CityDzhezkazgan
CountryKazakhstan
ICAOUAKD
IATADZN
Altitude116 m
CoordinatesGoogle Map
Live Air TrafficLiveATC.net
METARUAKD 231200Z 06006MPS CAVOK 25/03 Q1019 R04/0///65 NOSIG RMK QFE730/0974
2019-08-23 12:00:00 Wind: Northeast (60°) 6 m/s - Visibility: > 10000 m - Weather: CAVOK - Temperature: 25 °C - Dew point: 3 °C - Humidity: 24% - Pressure: 1019 hPa

Sorry, no flights used the airport in this database.